Time;durP1;ratioP1;P1;durP2;ratioP2;P2;SDS_P1;SDS_P2;PMS_P1;PMS_P2;Temp;Humidity;BMP_temperature;BMP_pressure;BME280_temperature;BME280_humidity;BME280_pressure;Samples;Min_cycle;Max_cycle;Signal;HPM_P1;HPM_P2
2022/02/19 00:00:57;;;;;;;9.15;4.90;;;;;;;6.25;46.25;100742.34;5055257;28;20045;-72
2022/02/19 00:03:22;;;;;;;12.98;5.47;;;;;;;5.88;46.71;100729.31;5052778;28;20044;-72
2022/02/19 00:05:48;;;;;;;12.88;4.63;;;;;;;6.11;46.55;100734.19;5052021;28;20017;-72
2022/02/19 00:08:15;;;;;;;7.35;3.92;;;;;;;6.08;46.16;100718.50;5052380;28;20041;-72
2022/02/19 00:10:42;;;;;;;8.57;4.32;;;;;;;6.15;45.82;100724.75;5051195;28;20110;-73
2022/02/19 00:13:09;;;;;;;13.18;4.15;;;;;;;6.14;45.95;100729.06;5049657;28;20103;-73
2022/02/19 00:15:35;;;;;;;9.77;4.15;;;;;;;6.09;46.29;100709.84;5039762;28;20049;-73
2022/02/19 00:18:00;;;;;;;8.13;3.38;;;;;;;6.21;45.77;100725.75;5042939;28;20039;-73
2022/02/19 00:20:26;;;;;;;7.78;4.05;;;;;;;6.26;45.72;100726.75;5038072;28;20037;-73
2022/02/19 00:23:02;;;;;;;7.50;4.05;;;;;;;6.35;45.37;100731.28;5045747;28;20041;-73
2022/02/19 00:25:28;;;;;;;8.30;4.53;;;;;;;6.31;45.07;100725.13;5042775;28;20144;-73
2022/02/19 00:27:53;;;;;;;8.57;3.97;;;;;;;6.31;44.88;100729.44;5046662;28;20132;-73
2022/02/19 00:30:19;;;;;;;6.57;3.38;;;;;;;6.38;45.26;100761.75;5050762;28;20041;-73
2022/02/19 00:32:44;;;;;;;6.43;3.55;;;;;;;6.40;45.10;100760.94;5041715;28;20034;-73
2022/02/19 00:35:10;;;;;;;7.95;4.15;;;;;;;6.42;45.03;100759.25;5043779;28;20143;-73
2022/02/19 00:37:36;;;;;;;4.90;3.25;;;;;;;6.49;44.55;100771.56;5038481;28;20040;-73
2022/02/19 00:40:02;;;;;;;5.07;2.28;;;;;;;6.52;44.10;100752.50;5038181;28;20484;-73
2022/02/19 00:42:27;;;;;;;8.45;2.63;;;;;;;6.53;44.40;100757.75;5038454;28;20068;-73
2022/02/19 00:44:53;;;;;;;10.50;4.07;;;;;;;6.41;44.66;100760.06;5038588;28;20400;-73
2022/02/19 00:47:18;;;;;;;7.20;3.45;;;;;;;6.34;44.97;100764.31;5042647;28;20365;-73
2022/02/19 00:49:44;;;;;;;8.73;3.20;;;;;;;6.39;44.84;100764.41;5042147;28;20473;-73
2022/02/19 00:52:09;;;;;;;5.80;2.95;;;;;;;6.44;44.54;100751.44;5050638;28;20040;-73
2022/02/19 00:54:35;;;;;;;7.70;3.13;;;;;;;6.55;44.44;100757.78;5051588;28;20045;-72
2022/02/19 00:57:00;;;;;;;9.63;3.85;;;;;;;6.68;44.59;100745.91;5049803;28;20488;-73
2022/02/19 00:59:26;;;;;;;9.05;3.28;;;;;;;6.58;44.57;100742.22;5071799;28;20476;-73
2022/02/19 01:01:51;;;;;;;5.13;2.88;;;;;;;6.64;44.35;100751.88;5043507;28;20041;-73
2022/02/19 01:04:16;;;;;;;8.05;3.88;;;;;;;6.50;44.19;100764.63;5048676;28;20543;-73
2022/02/19 01:06:44;;;;;;;8.20;3.78;;;;;;;6.65;43.68;100756.25;5046027;28;20079;-73
2022/02/19 01:09:09;;;;;;;9.48;3.33;;;;;;;6.59;44.29;100761.34;5047040;28;20036;-73
2022/02/19 01:11:39;;;;;;;10.70;3.70;;;;;;;6.41;43.87;100748.78;5050647;28;20518;-73
2022/02/19 01:14:23;;;;;;;9.00;4.53;;;;;;;6.55;44.20;100755.16;5069570;28;20048;-73
2022/02/19 01:16:49;;;;;;;7.13;3.88;;;;;;;6.09;44.96;100741.13;5039105;28;20045;-73
2022/02/19 01:19:14;;;;;;;7.15;3.95;;;;;;;6.15;45.07;100745.59;5050114;28;20102;-73
2022/02/19 01:21:45;;;;;;;10.05;4.38;;;;;;;6.14;44.93;100742.09;5047489;28;20040;-72
2022/02/19 01:24:10;;;;;;;10.20;4.28;;;;;;;6.06;44.80;100741.03;5050266;28;20051;-72
2022/02/19 01:26:36;;;;;;;6.45;4.05;;;;;;;6.08;44.50;100761.06;5049691;28;20437;-72
2022/02/19 01:29:01;;;;;;;7.95;4.57;;;;;;;6.15;44.62;100759.47;5047468;28;20475;-73
2022/02/19 01:31:27;;;;;;;9.43;4.60;;;;;;;6.02;44.75;100757.44;5041686;28;20492;-72
2022/02/19 01:33:53;;;;;;;7.47;4.13;;;;;;;6.04;44.95;100759.25;5050879;28;20074;-72
2022/02/19 01:36:18;;;;;;;6.28;3.60;;;;;;;6.00;44.60;100751.31;5039568;28;20536;-72
2022/02/19 01:38:44;;;;;;;6.53;4.13;;;;;;;5.91;45.65;100731.09;5041414;28;20461;-72
2022/02/19 01:41:09;;;;;;;8.05;4.72;;;;;;;5.89;45.28;100749.28;5044779;28;20068;-72
2022/02/19 01:43:35;;;;;;;9.07;4.43;;;;;;;5.84;44.82;100755.22;5030782;28;20052;-75
2022/02/19 01:46:00;;;;;;;7.25;4.22;;;;;;;5.91;45.03;100746.72;5081230;28;20484;-73
2022/02/19 01:48:26;;;;;;;9.70;4.30;;;;;;;5.72;45.10;100750.59;5050416;28;20037;-72
2022/02/19 01:51:01;;;;;;;8.27;5.18;;;;;;;5.97;45.04;100751.22;5037500;28;20026;-72
2022/02/19 01:53:26;;;;;;;7.68;4.72;;;;;;;5.89;45.20;100746.69;5060196;28;20055;-73
2022/02/19 01:55:56;;;;;;;8.38;4.20;;;;;;;5.82;45.36;100764.72;5071049;28;20036;-74
2022/02/19 01:58:29;;;;;;;10.55;4.25;;;;;;;5.94;44.76;100770.25;5070258;28;20040;-72
2022/02/19 02:00:55;;;;;;;12.30;3.90;;;;;;;5.87;44.82;100769.19;5069228;28;20104;-72
2022/02/19 02:03:20;;;;;;;7.75;4.53;;;;;;;5.86;45.29;100763.97;5070287;28;20049;-73
2022/02/19 02:05:46;;;;;;;10.80;4.00;;;;;;;5.84;44.96;100761.31;5071406;28;20040;-72
2022/02/19 02:08:13;;;;;;;10.07;4.93;;;;;;;5.74;45.00;100758.47;5058353;28;20041;-72
2022/02/19 02:10:39;;;;;;;7.85;4.20;;;;;;;5.81;44.66;100773.41;5040450;28;20039;-72
2022/02/19 02:13:04;;;;;;;6.88;4.38;;;;;;;5.85;44.92;100785.63;5067957;28;20036;-72
2022/02/19 02:15:34;;;;;;;10.68;4.28;;;;;;;5.89;44.68;100780.53;5074359;28;20040;-72
2022/02/19 02:18:00;;;;;;;10.82;4.15;;;;;;;5.91;44.91;100768.44;5049842;28;20033;-72
2022/02/19 02:20:26;;;;;;;6.55;4.43;;;;;;;5.90;44.61;100765.81;5050428;28;20040;-72
2022/02/19 02:22:51;;;;;;;8.30;5.15;;;;;;;5.75;45.05;100770.63;5064269;28;20053;-73
2022/02/19 02:25:48;;;;;;;9.43;4.82;;;;;;;5.57;45.02;100761.53;5071065;28;20052;-72
2022/02/19 02:28:13;;;;;;;7.70;4.90;;;;;;;5.71;44.58;100759.25;5052738;28;20099;-73
2022/02/19 02:30:39;;;;;;;9.65;5.75;;;;;;;5.69;44.92;100766.16;5048991;28;20417;-73
2022/02/19 02:33:07;;;;;;;10.35;4.25;;;;;;;5.54;44.88;100766.63;5049580;28;20448;-72
2022/02/19 02:35:34;;;;;;;9.20;4.75;;;;;;;5.52;44.99;100768.31;5050650;28;20040;-72
2022/02/19 02:37:59;;;;;;;10.18;5.03;;;;;;;5.37;45.34;100758.38;5044686;28;20045;-72
2022/02/19 02:40:25;;;;;;;11.30;5.50;;;;;;;5.20;45.54;100746.66;5062122;28;20048;-72
2022/02/19 02:43:16;;;;;;;11.85;5.95;;;;;;;4.99;46.20;100742.63;5049197;28;20053;-73
2022/02/19 02:45:41;;;;;;;13.27;5.85;;;;;;;4.82;46.58;100729.16;5045146;28;20037;-72
2022/02/19 02:48:07;;;;;;;9.25;6.50;;;;;;;4.84;46.59;100729.16;5050021;28;20036;-72
2022/02/19 02:50:32;;;;;;;13.95;5.68;;;;;;;4.73;47.18;100736.69;5070893;28;20029;-72
2022/02/19 02:52:59;;;;;;;16.75;5.80;;;;;;;4.79;46.59;100756.75;5049917;28;20443;-71
2022/02/19 02:55:24;;;;;;;10.10;6.53;;;;;;;4.68;47.01;100753.84;5045015;28;20045;-74
2022/02/19 02:57:50;;;;;;;14.75;6.63;;;;;;;4.89;46.57;100756.19;5056507;28;20040;-72
2022/02/19 03:00:16;;;;;;;14.80;7.10;;;;;;;4.81;46.96;100735.16;5057259;28;20037;-73
2022/02/19 03:02:43;;;;;;;20.02;7.65;;;;;;;4.81;47.17;100736.91;5043299;28;20031;-72
2022/02/19 03:05:11;;;;;;;17.05;8.15;;;;;;;4.59;47.55;100736.28;5045975;28;20065;-72
2022/02/19 03:07:37;;;;;;;11.93;5.93;;;;;;;4.67;47.73;100743.41;5049099;28;20041;-73
2022/02/19 03:10:03;;;;;;;15.07;7.45;;;;;;;4.60;48.14;100731.97;5048853;28;20045;-73
2022/02/19 03:12:29;;;;;;;21.42;7.32;;;;;;;4.57;48.07;100727.56;5038134;28;20565;-72
2022/02/19 03:14:55;;;;;;;12.63;7.95;;;;;;;4.61;48.24;100721.63;5051199;28;20025;-74
2022/02/19 03:17:20;;;;;;;21.00;7.10;;;;;;;4.42;48.67;100709.81;5047982;28;20560;-72
2022/02/19 03:19:46;;;;;;;11.18;6.57;;;;;;;4.61;48.13;100716.41;5036414;28;20033;-73
2022/02/19 03:22:12;;;;;;;19.05;6.28;;;;;;;4.58;48.33;100716.31;5041515;28;20051;-73
2022/02/19 03:24:41;;;;;;;14.32;7.07;;;;;;;4.58;48.36;100718.03;5046851;28;20106;-72
2022/02/19 03:27:06;;;;;;;10.80;6.60;;;;;;;4.71;47.78;100720.16;5034399;28;20113;-72
2022/02/19 03:29:34;;;;;;;12.85;6.75;;;;;;;4.48;48.53;100716.00;5042244;28;20475;-72
2022/02/19 03:32:00;;;;;;;16.33;7.10;;;;;;;4.62;48.51;100723.38;5064605;28;20048;-72
2022/02/19 03:34:27;;;;;;;10.57;5.78;;;;;;;4.51;48.51;100716.97;5066832;28;20134;-72
2022/02/19 03:37:17;;;;;;;14.63;7.80;;;;;;;4.68;48.17;100738.25;5071144;28;20515;-73
2022/02/19 03:39:42;;;;;;;14.18;6.93;;;;;;;4.80;47.87;100733.41;5065989;28;20041;-72
2022/02/19 03:42:08;;;;;;;31.15;8.20;;;;;;;4.74;48.29;100725.44;5056831;28;20499;-72
2022/02/19 03:44:34;;;;;;;9.95;5.88;;;;;;;4.35;48.60;100719.94;5063577;28;20510;-72
2022/02/19 03:46:59;;;;;;;12.57;6.60;;;;;;;4.49;48.62;100722.97;5068028;28;20064;-73
2022/02/19 03:49:25;;;;;;;14.07;7.68;;;;;;;4.62;48.60;100727.69;5068741;28;20047;-72
2022/02/19 03:51:50;;;;;;;14.65;7.03;;;;;;;4.58;48.42;100728.44;5068934;28;20045;-72
2022/02/19 03:54:15;;;;;;;15.70;5.88;;;;;;;4.38;48.91;100723.53;5067002;28;20043;-72
2022/02/19 03:56:43;;;;;;;12.57;6.43;;;;;;;4.55;48.97;100733.53;5068138;28;20035;-72
2022/02/19 03:59:12;;;;;;;12.43;6.57;;;;;;;4.50;48.88;100724.75;5061693;28;20077;-72
2022/02/19 04:01:37;;;;;;;17.77;7.20;;;;;;;4.57;49.48;100717.16;5053158;28;20029;-73
2022/02/19 04:04:03;;;;;;;11.85;5.78;;;;;;;4.57;49.25;100714.56;5065070;28;20121;-72
2022/02/19 04:06:28;;;;;;;10.80;6.05;;;;;;;4.55;49.53;100717.94;5068069;28;20075;-72
2022/02/19 04:08:54;;;;;;;15.35;6.35;;;;;;;4.54;49.64;100716.16;5064076;28;20024;-72
2022/02/19 04:11:19;;;;;;;10.23;6.25;;;;;;;4.51;49.92;100724.75;5071565;28;20468;-72
2022/02/19 04:13:44;;;;;;;14.20;6.25;;;;;;;4.41;50.01;100715.81;5051423;28;20045;-72
2022/02/19 04:16:10;;;;;;;11.88;5.68;;;;;;;4.44;49.70;100715.03;5063140;28;20064;-73
2022/02/19 04:18:36;;;;;;;10.93;6.18;;;;;;;4.55;49.68;100725.75;5064600;28;20124;-72
2022/02/19 04:21:02;;;;;;;14.23;5.88;;;;;;;4.35;50.28;100715.63;5061723;28;20017;-73
2022/02/19 04:23:27;;;;;;;11.50;6.57;;;;;;;4.53;49.75;100714.44;5067453;28;20036;-73
2022/02/19 04:25:52;;;;;;;13.48;7.05;;;;;;;4.46;49.94;100713.34;5048090;28;20116;-74
2022/02/19 04:28:21;;;;;;;9.10;5.68;;;;;;;4.51;49.73;100713.50;5067045;28;20044;-72
2022/02/19 04:30:47;;;;;;;30.80;7.07;;;;;;;4.61;50.02;100718.09;5059464;28;20380;-72
2022/02/19 04:33:24;;;;;;;22.73;6.75;;;;;;;4.54;49.91;100729.16;5070101;28;20036;-73
2022/02/19 04:35:49;;;;;;;11.05;5.53;;;;;;;4.40;50.59;100719.25;5070933;28;20464;-73
2022/02/19 04:38:16;;;;;;;12.23;6.80;;;;;;;4.27;50.65;100706.75;5072570;28;20044;-73
2022/02/19 04:40:42;;;;;;;12.70;5.38;;;;;;;4.02;51.44;100713.75;5064469;28;20080;-73
2022/02/19 04:43:35;;;;;;;14.57;6.13;;;;;;;4.06;51.73;100719.06;5071244;28;20048;-73
2022/02/19 04:46:00;;;;;;;13.35;7.45;;;;;;;4.24;51.44;100711.84;5053610;28;20557;-72
2022/02/19 04:48:26;;;;;;;15.95;6.47;;;;;;;4.26;51.52;100701.47;5074912;28;20056;-71
2022/02/19 04:50:51;;;;;;;16.85;6.55;;;;;;;4.35;51.25;100713.03;5063191;28;20037;-72
2022/02/19 04:53:17;;;;;;;16.20;7.05;;;;;;;4.37;51.22;100711.34;5052832;28;20226;-72
2022/02/19 04:55:49;;;;;;;10.63;5.70;;;;;;;4.54;51.02;100716.16;5063497;28;20041;-71
2022/02/19 04:58:14;;;;;;;14.52;5.57;;;;;;;4.43;51.00;100716.75;5062834;28;20490;-72
2022/02/19 05:00:41;;;;;;;11.13;7.05;;;;;;;4.41;51.22;100712.34;5068624;28;20083;-74
2022/02/19 05:03:07;;;;;;;17.63;6.97;;;;;;;4.43;51.08;100719.34;5072938;28;20028;-73
2022/02/19 05:05:32;;;;;;;10.68;5.72;;;;;;;4.52;51.25;100728.22;5074558;28;20032;-73
2022/02/19 05:07:57;;;;;;;17.73;7.75;;;;;;;4.44;51.05;100713.31;5061999;28;20045;-73
2022/02/19 05:10:23;;;;;;;13.02;6.28;;;;;;;4.19;51.73;100732.47;5068989;28;20051;-73
2022/02/19 05:12:50;;;;;;;14.25;7.05;;;;;;;4.25;51.52;100736.09;5069624;28;20036;-73
2022/02/19 05:15:16;;;;;;;10.30;6.15;;;;;;;4.47;51.97;100738.50;5070323;28;20028;-73
2022/02/19 05:17:50;;;;;;;11.13;7.18;;;;;;;4.50;51.53;100737.72;5075074;28;20032;-72
2022/02/19 05:20:20;;;;;;;10.85;5.97;;;;;;;4.39;51.86;100747.78;5062863;28;20036;-73
2022/02/19 05:22:46;;;;;;;11.10;6.30;;;;;;;4.39;51.71;100733.06;5063075;28;20052;-73
2022/02/19 05:25:12;;;;;;;9.48;5.68;;;;;;;4.52;51.55;100718.75;5064548;28;20465;-73
2022/02/19 05:27:37;;;;;;;17.05;7.88;;;;;;;4.60;51.45;100731.97;5068938;28;20492;-73
2022/02/19 05:30:05;;;;;;;11.38;6.20;;;;;;;4.41;51.56;100722.75;5070428;28;20028;-73
2022/02/19 05:33:01;;;;;;;13.95;5.93;;;;;;;4.44;51.99;100730.63;5074556;28;20092;-73
2022/02/19 05:35:26;;;;;;;16.60;6.40;;;;;;;4.06;52.75;100722.53;5068024;28;20045;-73
2022/02/19 05:38:02;;;;;;;15.90;7.47;;;;;;;4.43;52.63;100728.88;5072474;28;20049;-73
2022/02/19 05:40:28;;;;;;;10.90;6.47;;;;;;;4.51;51.90;100735.16;5054752;28;20070;-75
2022/02/19 05:42:53;;;;;;;11.70;7.38;;;;;;;4.37;52.25;100715.69;5068838;28;20534;-72
2022/02/19 05:45:19;;;;;;;12.63;6.93;;;;;;;4.31;52.53;100723.28;5070785;28;20131;-73
2022/02/19 05:47:44;;;;;;;16.45;7.40;;;;;;;4.38;52.05;100726.13;5058085;28;20056;-74
2022/02/19 05:50:10;;;;;;;14.10;6.88;;;;;;;4.17;53.11;100723.75;5067075;28;20063;-74
2022/02/19 05:52:35;;;;;;;12.30;6.32;;;;;;;4.11;53.37;100715.75;5069942;28;20040;-74
2022/02/19 05:55:01;;;;;;;18.77;7.22;;;;;;;4.01;53.33;100699.03;5068824;28;20456;-74
2022/02/19 05:57:26;;;;;;;17.08;6.80;;;;;;;4.13;53.26;100710.63;5066228;28;20488;-73
2022/02/19 05:59:52;;;;;;;16.70;7.63;;;;;;;4.22;53.10;100718.72;5061832;28;20086;-73
2022/02/19 06:02:18;;;;;;;16.60;7.88;;;;;;;4.19;53.67;100709.09;5069362;28;20031;-72
2022/02/19 06:04:44;;;;;;;15.93;8.32;;;;;;;4.26;53.33;100706.69;5067587;28;20033;-74
2022/02/19 06:07:09;;;;;;;18.90;7.43;;;;;;;4.19;53.25;100700.41;5062109;28;20400;-74
2022/02/19 06:09:35;;;;;;;16.70;7.70;;;;;;;4.39;53.15;100707.09;5061449;28;20044;-73
2022/02/19 06:12:00;;;;;;;20.45;8.45;;;;;;;4.22;53.24;100704.00;5067714;28;20037;-73
2022/02/19 06:14:26;;;;;;;14.70;8.32;;;;;;;4.42;53.37;100714.09;5067626;28;20033;-72
2022/02/19 06:17:10;;;;;;;16.92;7.35;;;;;;;4.43;53.43;100710.69;5067911;28;20483;-74
2022/02/19 06:19:35;;;;;;;10.15;7.63;;;;;;;4.80;52.34;100702.22;5061994;28;20119;-73
2022/02/19 06:22:01;;;;;;;14.98;8.75;;;;;;;4.57;52.62;100711.97;5067535;28;20384;-74
2022/02/19 06:24:26;;;;;;;16.55;7.32;;;;;;;5.07;51.64;100717.69;5063928;28;20076;-73
2022/02/19 06:26:52;;;;;;;15.20;6.75;;;;;;;5.07;51.58;100709.88;5067651;28;20040;-72
2022/02/19 06:29:18;;;;;;;14.88;7.68;;;;;;;5.25;50.67;100716.44;5063497;28;20109;-74
2022/02/19 06:31:43;;;;;;;13.20;7.90;;;;;;;5.35;50.78;100689.81;5057468;28;20060;-73
2022/02/19 06:34:08;;;;;;;16.05;7.75;;;;;;;5.21;50.36;100693.78;5069000;28;20037;-73
2022/02/19 06:36:47;;;;;;;10.52;6.38;;;;;;;5.22;50.25;100701.63;5068922;28;20492;-73
2022/02/19 06:39:12;;;;;;;20.42;6.78;;;;;;;5.46;50.13;100700.50;5063821;28;20039;-73
2022/02/19 06:41:37;;;;;;;17.88;7.25;;;;;;;5.45;50.09;100699.59;5067399;28;20114;-72
2022/02/19 06:44:04;;;;;;;13.98;6.75;;;;;;;5.33;49.83;100703.63;5062404;28;20052;-72
2022/02/19 06:46:29;;;;;;;14.68;8.40;;;;;;;5.26;50.12;100703.44;5062807;28;20786;-73
2022/02/19 06:48:55;;;;;;;14.27;7.80;;;;;;;5.60;49.71;100699.13;5083144;28;20048;-73
2022/02/19 06:51:20;;;;;;;12.23;6.78;;;;;;;5.72;49.53;100683.78;5058289;28;20049;-73
2022/02/19 06:53:46;;;;;;;13.48;7.57;;;;;;;5.86;49.32;100702.34;5055154;28;20194;-73
2022/02/19 06:56:11;;;;;;;13.02;6.72;;;;;;;5.80;49.43;100699.59;5062337;28;20077;-72
2022/02/19 06:58:37;;;;;;;11.40;6.05;;;;;;;5.83;49.10;100706.59;5064802;28;20128;-72
2022/02/19 07:01:03;;;;;;;11.95;6.80;;;;;;;5.83;49.58;100701.38;5068153;28;20032;-73
2022/02/19 07:03:28;;;;;;;17.20;8.18;;;;;;;5.67;49.98;100706.22;5068878;28;20044;-73
2022/02/19 07:05:54;;;;;;;15.70;8.35;;;;;;;5.77;49.26;100699.53;5070930;28;20762;-72
2022/02/19 07:08:29;;;;;;;16.23;7.50;;;;;;;5.89;49.63;100706.75;5069631;28;20074;-72
2022/02/19 07:10:55;;;;;;;14.40;6.80;;;;;;;5.92;49.35;100706.81;5059704;28;20044;-74
2022/02/19 07:13:21;;;;;;;14.55;8.27;;;;;;;5.94;48.91;100705.16;5068237;28;20040;-73
2022/02/19 07:15:47;;;;;;;18.25;7.93;;;;;;;5.96;49.17;100707.81;5051166;28;20044;-73
2022/02/19 07:18:12;;;;;;;18.38;8.35;;;;;;;5.75;50.27;100695.13;5070759;28;20081;-73
2022/02/19 07:20:38;;;;;;;17.63;8.40;;;;;;;5.90;49.34;100703.31;5052099;28;20322;-73
2022/02/19 07:23:04;;;;;;;13.20;9.07;;;;;;;5.88;49.72;100705.00;5075027;28;20128;-73
2022/02/19 07:25:30;;;;;;;14.63;7.72;;;;;;;5.88;49.23;100705.00;5068753;28;20045;-73
2022/02/19 07:27:57;;;;;;;15.35;8.15;;;;;;;6.08;48.46;100705.47;5067414;28;20417;-72
2022/02/19 07:30:22;;;;;;;13.27;7.70;;;;;;;6.11;47.92;100676.88;5067955;28;20045;-72
2022/02/19 07:32:50;;;;;;;18.95;7.13;;;;;;;6.26;47.81;100689.38;5061882;28;20021;-73
2022/02/19 07:35:16;;;;;;;18.08;8.70;;;;;;;6.03;48.67;100692.34;5055881;28;20507;-73
2022/02/19 07:37:41;;;;;;;16.63;7.38;;;;;;;5.77;48.68;100676.09;5049098;28;20044;-74
2022/02/19 07:40:08;;;;;;;14.20;7.45;;;;;;;6.45;48.06;100688.94;5054504;28;20515;-73
2022/02/19 07:42:35;;;;;;;14.10;7.25;;;;;;;6.47;47.06;100689.84;5066169;28;20051;-73
2022/02/19 07:45:01;;;;;;;19.83;7.85;;;;;;;6.62;47.50;100683.19;5067526;28;20024;-73
2022/02/19 07:47:33;;;;;;;18.98;8.10;;;;;;;6.64;47.56;100695.41;5063589;28;20106;-73
2022/02/19 07:58:26;;;;;;;11.38;6.97;;;;;;;7.10;46.66;100696.31;5047957;28;20507;-73
2022/02/19 08:00:54;;;;;;;12.43;5.63;;;;;;;7.21;45.95;100703.44;5051161;28;20067;-72
2022/02/19 08:03:21;;;;;;;13.73;6.00;;;;;;;7.45;45.53;100688.22;5047331;28;20041;-72
2022/02/19 08:05:47;;;;;;;17.02;6.93;;;;;;;7.14;46.42;100699.84;5066515;28;20024;-72
2022/02/19 08:08:13;;;;;;;14.88;7.82;;;;;;;7.47;45.52;100709.13;5060143;28;20131;-73
2022/02/19 08:10:39;;;;;;;12.00;6.65;;;;;;;7.68;45.23;100708.63;5066192;28;20529;-73
2022/02/19 08:13:07;;;;;;;11.40;6.72;;;;;;;7.68;45.17;100713.84;5067139;28;20063;-73
2022/02/19 08:15:36;;;;;;;14.38;6.35;;;;;;;7.82;44.88;100726.28;5059646;28;20085;-73
2022/02/19 08:18:06;;;;;;;19.85;7.00;;;;;;;8.02;44.30;100734.44;5069729;28;20365;-73
2022/02/19 08:20:43;;;;;;;11.52;5.20;;;;;;;8.02;44.26;100731.81;5072577;28;20056;-73
2022/02/19 08:23:09;;;;;;;15.75;8.07;;;;;;;7.98;44.48;100713.44;5068279;28;20480;-73
2022/02/19 08:25:36;;;;;;;12.15;7.75;;;;;;;7.98;45.12;100709.13;5063712;28;20048;-74
2022/02/19 08:28:05;;;;;;;14.23;5.57;;;;;;;8.17;44.51;100717.22;5071247;28;20044;-73
2022/02/19 08:30:34;;;;;;;18.33;6.57;;;;;;;7.97;44.24;100707.34;5070256;28;20047;-72
2022/02/19 08:33:00;;;;;;;17.33;7.72;;;;;;;8.43;44.00;100701.97;5063352;28;20028;-72
2022/02/19 08:35:26;;;;;;;18.20;8.70;;;;;;;8.64;43.04;100706.59;5068155;28;20037;-71
2022/02/19 08:37:52;;;;;;;13.93;6.95;;;;;;;8.51;43.35;100713.38;5060234;28;20047;-72
2022/02/19 08:40:17;;;;;;;15.82;6.90;;;;;;;8.56;43.33;100714.31;5062731;28;20451;-71
2022/02/19 08:46:13;;;;;;;16.30;8.23;;;;;;;8.75;43.01;100711.94;5069918;28;20491;-71
2022/02/19 08:48:38;;;;;;;18.33;6.97;;;;;;;8.83;42.70;100703.31;5071617;28;20041;-71
2022/02/19 08:51:04;;;;;;;20.63;7.07;;;;;;;8.73;42.72;100697.94;5055546;28;20027;-72
2022/02/19 08:53:29;;;;;;;16.00;6.90;;;;;;;9.29;42.57;100689.84;5070751;28;20560;-72
2022/02/19 08:55:57;;;;;;;9.55;7.32;;;;;;;9.27;42.06;100678.47;5065974;28;20028;-73
2022/02/19 08:58:23;;;;;;;18.65;10.10;;;;;;;9.50;42.02;100683.91;5068006;28;20127;-73
2022/02/19 09:00:48;;;;;;;11.25;5.70;;;;;;;9.57;41.67;100677.00;5053966;28;20124;-73
2022/02/19 09:03:14;;;;;;;11.27;7.03;;;;;;;9.50;41.25;100671.72;5056428;28;20033;-75
2022/02/19 09:05:40;;;;;;;12.82;7.32;;;;;;;9.59;41.87;100670.91;5075762;28;20024;-73
2022/02/19 09:08:06;;;;;;;15.10;7.80;;;;;;;9.58;41.51;100670.91;5081511;28;20499;-76
2022/02/19 09:13:54;;;;;;;20.10;7.50;;;;;;;9.72;41.41;100670.13;5095722;28;20085;-72
2022/02/19 09:16:21;;;;;;;13.25;6.60;;;;;;;10.07;41.04;100673.88;5069765;28;20048;-76
2022/02/19 09:18:46;;;;;;;15.32;6.18;;;;;;;10.06;40.95;100666.88;5069381;28;20040;-76
2022/02/19 09:21:12;;;;;;;15.93;6.70;;;;;;;10.01;41.15;100656.34;5061447;28;20044;-76
2022/02/19 09:23:57;;;;;;;13.85;6.10;;;;;;;10.01;40.63;100658.09;5064491;28;20021;-77
2022/02/19 09:26:24;;;;;;;15.77;7.28;;;;;;;9.78;41.48;100653.56;5051755;28;20053;-75
2022/02/19 09:28:50;;;;;;;15.13;7.30;;;;;;;10.13;40.81;100643.31;5056448;28;20032;-74
2022/02/19 09:31:16;;;;;;;22.77;7.25;;;;;;;10.49;40.25;100644.41;5058658;28;20075;-75
2022/02/19 09:37:10;;;;;;;12.93;6.80;;;;;;;10.70;39.30;100648.84;5065100;28;20075;-74
2022/02/19 09:39:36;;;;;;;14.95;7.03;;;;;;;11.02;39.18;100661.16;5068530;28;20056;-76
2022/02/19 09:42:03;;;;;;;11.07;5.38;;;;;;;10.94;38.83;100645.41;5071667;28;20396;-76
2022/02/19 09:44:30;;;;;;;12.73;5.07;;;;;;;10.81;38.17;100656.75;5071663;28;20486;-77
2022/02/19 09:50:18;;;;;;;20.90;6.28;;;;;;;10.91;38.08;100640.16;5054796;28;20492;-77
2022/02/19 09:52:44;;;;;;;11.18;5.65;;;;;;;11.15;38.23;100635.81;5059037;28;20074;-76
2022/02/19 09:55:10;;;;;;;16.00;6.97;;;;;;;11.20;37.75;100644.59;5073347;28;20423;-76
2022/02/19 09:57:35;;;;;;;10.02;6.40;;;;;;;11.51;37.40;100644.59;5065793;28;20032;-80
2022/02/19 10:03:26;;;;;;;11.43;5.38;;;;;;;11.64;36.87;100646.34;5072115;28;20041;-74
2022/02/19 10:05:55;;;;;;;14.40;6.15;;;;;;;11.82;37.04;100632.28;5069837;28;20376;-75
2022/02/19 10:15:39;;;;;;;10.68;4.78;;;;;;;12.07;35.52;100637.53;5065228;28;20128;-75
2022/02/19 10:18:42;;;;;;;14.35;5.18;;;;;;;12.08;35.99;100624.41;5060606;28;20020;-73
2022/02/19 10:21:15;;;;;;;7.97;4.47;;;;;;;12.17;36.27;100623.47;5070208;28;20016;-74
2022/02/19 10:23:56;;;;;;;11.07;5.03;;;;;;;12.63;35.32;100616.28;5064008;28;20033;-76
2022/02/19 10:33:12;;;;;;;10.95;4.07;;;;;;;12.98;34.46;100595.88;5062782;28;20047;-74
2022/02/19 10:35:47;;;;;;;10.02;4.68;;;;;;;13.18;34.31;100601.91;5072203;28;20601;-75
2022/02/19 10:42:23;;;;;;;10.15;4.22;;;;;;;13.52;33.58;100581.41;5069955;28;20043;-73
2022/02/19 10:44:49;;;;;;;7.57;3.60;;;;;;;13.55;33.28;100566.44;5070105;28;20166;-74
2022/02/19 10:47:22;;;;;;;8.23;3.95;;;;;;;13.49;33.06;100573.53;5070393;28;20376;-74
2022/02/19 10:50:29;;;;;;;11.38;3.80;;;;;;;13.78;33.62;100563.59;5057793;28;20037;-73
2022/02/19 10:53:36;;;;;;;15.88;4.88;;;;;;;14.64;31.77;100559.91;5061340;28;20036;-73
2022/02/19 10:56:28;;;;;;;11.20;3.63;;;;;;;15.20;31.24;100558.16;5052745;28;20052;-73
2022/02/19 10:59:03;;;;;;;9.80;5.25;;;;;;;15.61;30.57;100559.19;5066537;28;20440;-74
2022/02/19 11:01:45;;;;;;;23.30;4.53;;;;;;;15.51;30.27;100550.56;5069017;28;20139;-72
2022/02/19 11:04:22;;;;;;;14.02;4.75;;;;;;;15.31;31.47;100555.31;5070537;28;20036;-71
2022/02/19 11:06:48;;;;;;;9.93;5.25;;;;;;;15.51;31.05;100552.31;5071733;28;20040;-76
2022/02/19 11:12:48;;;;;;;11.13;3.50;;;;;;;16.14;29.67;100544.06;5065569;28;20048;-77
2022/02/19 11:15:16;;;;;;;8.30;3.83;;;;;;;16.09;30.14;100545.09;5069266;28;20552;-77
2022/02/19 11:17:41;;;;;;;12.52;5.32;;;;;;;16.01;30.37;100539.94;5069156;28;20028;-76
2022/02/19 11:20:38;;;;;;;9.30;3.70;;;;;;;16.44;29.61;100534.59;5072004;28;20052;-75
2022/02/19 11:23:23;;;;;;;8.95;4.22;;;;;;;16.75;28.68;100539.19;5060963;28;20090;-76
2022/02/19 11:25:52;;;;;;;9.25;3.22;;;;;;;16.65;28.33;100535.88;5072616;28;20040;-73
2022/02/19 11:28:19;;;;;;;7.57;3.22;;;;;;;16.76;27.97;100529.47;5071466;28;20427;-74
2022/02/19 11:30:51;;;;;;;11.20;3.65;;;;;;;16.46;29.30;100532.78;5060896;28;20067;-74
2022/02/19 11:33:18;;;;;;;13.35;4.07;;;;;;;16.79;28.75;100517.06;5054945;28;20132;-75
2022/02/19 11:35:46;;;;;;;9.65;3.90;;;;;;;16.36;28.75;100511.81;5069509;28;20027;-72
2022/02/19 11:38:21;;;;;;;10.77;2.78;;;;;;;16.47;28.58;100512.47;5069538;28;20552;-73
2022/02/19 11:40:47;;;;;;;5.65;2.20;;;;;;;16.86;27.87;100518.66;5066903;28;20033;-73
2022/02/19 11:43:39;;;;;;;11.73;3.20;;;;;;;16.97;28.01;100521.00;5069882;28;20124;-73
2022/02/19 11:46:14;;;;;;;7.40;3.37;;;;;;;16.63;27.80;100513.00;5072231;28;20060;-73
2022/02/19 11:48:53;;;;;;;6.68;2.95;;;;;;;16.85;28.10;100511.59;5075036;28;20061;-76
2022/02/19 11:51:22;;;;;;;6.45;3.30;;;;;;;16.09;28.97;100508.03;5075992;28;20091;-74
2022/02/19 11:54:15;;;;;;;15.10;3.67;;;;;;;16.31;28.26;100511.06;5076923;28;20519;-73
2022/02/19 11:57:21;;;;;;;6.90;3.00;;;;;;;16.01;28.39;100514.34;5064981;28;20036;-73
2022/02/19 11:59:48;;;;;;;8.20;4.22;;;;;;;15.98;28.83;100508.22;5071839;28;20128;-74
2022/02/19 12:02:20;;;;;;;7.85;3.65;;;;;;;16.17;28.67;100501.63;5056802;28;20242;-77
2022/02/19 12:05:18;;;;;;;11.38;3.20;;;;;;;15.96;28.52;100504.75;5069892;28;20047;-76
2022/02/19 12:07:57;;;;;;;5.07;2.60;;;;;;;16.25;28.10;100494.41;5060648;28;20504;-70
2022/02/19 12:10:22;;;;;;;9.60;2.22;;;;;;;16.00;28.37;100490.56;5067061;28;20126;-70
2022/02/19 12:13:10;;;;;;;8.18;3.45;;;;;;;16.39;28.40;100493.25;5059099;28;20508;-69
2022/02/19 12:15:38;;;;;;;9.75;3.08;;;;;;;16.25;28.44;100480.31;5057235;28;20472;-69
2022/02/19 12:18:04;;;;;;;7.93;3.22;;;;;;;16.00;28.20;100472.03;5057015;28;20032;-70
2022/02/19 12:20:32;;;;;;;13.88;3.50;;;;;;;16.02;28.48;100492.25;5067223;28;20036;-70